Flinterborg — PHPH — position and weather

sailwx.info

Track history (hours):
 
Tides and Currents Weather Stations Pressure Air Temp Water Temp Dewpoint Dewpoint Depression Visibility Wind Speed Wind Dir Waves Ship Positions

Flinterborg

Last reported at 2014-Jul-30 14:31 UTC. Time now 2014-Jul-30 15:20 UTC.
Position N 60°29' E 026°57'.

Length 111 m; draft 5.9 m.

Type: Ship. MMSI: 245433000.

Date/timePositionNaut miles runAvg speedWind from/ knotsBaromVisibWave heightAir tempDewpointWater temp
2014-Jul-30 14:31N 60°29' E 026°57'0 0.0
2014-Jul-30 13:31N 60°29' E 026°57'0 0.0
2014-Jul-30 12:31N 60°29' E 026°57'0 0.0
2014-Jul-30 11:33N 60°29' E 026°57'0 0.0
2014-Jul-30 10:33N 60°29' E 026°57'0 0.0
2014-Jul-30 09:32N 60°29' E 026°57'0 0.0
2014-Jul-30 08:29N 60°29' E 026°57'0 0.0
2014-Jul-30 07:31N 60°29' E 026°57'0 0.0
2014-Jul-30 06:31N 60°29' E 026°57'0 0.0
2014-Jul-30 05:28N 60°29' E 026°57'0 0.0
2014-Jul-30 04:33N 60°29' E 026°57'0 0.0
2014-Jul-30 03:33N 60°29' E 026°57'0 0.0
2014-Jul-30 02:32N 60°29' E 026°57'0 0.0
2014-Jul-30 01:32N 60°29' E 026°57'0 0.0
2014-Jul-30 00:31N 60°29' E 026°57'0 0.0
2014-Jul-29 23:31N 60°29' E 026°57'0 0.0
2014-Jul-29 22:31N 60°29' E 026°57'0 0.0
2014-Jul-29 21:33N 60°29' E 026°57'0 0.0
2014-Jul-29 20:33N 60°29' E 026°57'0 0.0
2014-Jul-29 19:32N 60°29' E 026°57'0 0.0
2014-Jul-29 18:32N 60°29' E 026°57'0 0.0
2014-Jul-29 17:31N 60°29' E 026°57'0 0.0
2014-Jul-29 16:31N 60°29' E 026°57'0 0.0
2014-Jul-29 15:34N 60°29' E 026°57'0 0.0
2014-Jul-29 14:33N 60°29' E 026°57'0 0.4
2014-Jul-29 13:33N 60°29' E 026°57'1110.5
2014-Jul-29 12:34N 60°22' E 026°41'1211.5
2014-Jul-29 11:34N 60°14' E 026°25'8 7.9
2014-Jul-29 10:34N 60°07' E 026°16'1212.0
2014-Jul-29 09:33N 59°58' E 026°00'1111.2
2014-Jul-29 08:33N 59°52' E 025°41'1612.0
2014-Jul-29 07:12N 59°49' E 025°09'4311.7
2014-Jul-29 03:33N 59°37' E 023°48'1111.4
2014-Jul-29 02:33N 59°33' E 023°27'1311.5
2014-Jul-29 01:28N 59°29' E 023°03'1111.9
2014-Jul-29 00:30N 59°25' E 022°42'3611.9
2014-Jul-28 21:30N 59°04' E 021°46'21212.3
2014-Jul-28 04:18N 56°22' E 017°29'1212.2
2014-Jul-28 03:17N 56°15' E 017°12'3412.2
2014-Jul-28 00:30N 55°55' E 016°22'1612.1
2014-Jul-27 23:10N 55°48' E 015°57'712.1
2014-Jul-27 22:33N 55°44' E 015°46'1212.2
2014-Jul-27 21:33N 55°38' E 015°27'1212.4
2014-Jul-27 20:34N 55°32' E 015°07'1312.5
2014-Jul-27 19:33N 55°26' E 014°48'1212.3
2014-Jul-27 18:33N 55°17' E 014°32'1312.3
2014-Jul-27 17:30N 55°07' E 014°18'1212.1
2014-Jul-27 16:33N 55°00' E 014°03'1212.3
2014-Jul-27 15:33N 54°56' E 013°43'1212.2
2014-Jul-27 14:33N 54°52' E 013°22'1212.2
2014-Jul-27 13:33N 54°47' E 013°03'1212.3
2014-Jul-27 12:33N 54°41' E 012°44'1212.0
2014-Jul-27 11:33N 54°35' E 012°26'1111.1
2014-Jul-27 10:33N 54°27' E 012°13'1111.0
2014-Jul-27 09:33N 54°24' E 011°55'1212.1
2014-Jul-27 08:33N 54°28' E 011°35'1211.9
2014-Jul-27 07:33N 54°33' E 011°17'1211.7
2014-Jul-27 06:33N 54°35' E 010°56'48 7.9
2014-Jul-27 00:26N 54°17' E 009°39'3 2.8
2014-Jul-26 23:18N 54°14' E 009°37'6 8.1
2014-Jul-26 22:32N 54°11' E 009°28'8 7.7
2014-Jul-26 21:28N 54°05' E 009°19'6 6.1
2014-Jul-26 20:33N 53°59' E 009°17'7 7.3
2014-Jul-26 19:33N 53°54' E 009°09'1 1.5
2014-Jul-26 18:33N 53°53' E 009°06'3 3.4
2014-Jul-26 17:33N 53°51' E 009°01'8 8.3
2014-Jul-26 16:33N 53°50' E 008°47'8 8.3
2014-Jul-26 15:33N 53°57' E 008°38'9 9.2
2014-Jul-26 14:33N 53°59' E 008°23'1010.4
2014-Jul-26 13:33N 53°59' E 008°05'1211.5
2014-Jul-26 12:30N 53°56' E 007°46'5212.7
2014-Jul-26 08:25N 53°43' E 006°20'1113.2
2014-Jul-26 07:33N 53°40' E 006°02'1313.3
2014-Jul-26 06:33N 53°36' E 005°40'1313.4
2014-Jul-26 05:33N 53°32' E 005°19'1413.5
2014-Jul-26 04:33N 53°27' E 004°58'1312.9
2014-Jul-26 03:33N 53°20' E 004°40'1413.6
2014-Jul-26 02:33N 53°09' E 004°28'1312.9
2014-Jul-26 01:33N 52°57' E 004°19'1211.9
2014-Jul-26 00:33N 52°46' E 004°09'1211.5
2014-Jul-25 23:33N 52°37' E 003°58'1211.2
2014-Jul-25 22:28N 52°27' E 003°47'1311.2
2014-Jul-25 21:19N 52°16' E 003°36'2310.5
2014-Jul-25 19:07N 51°55' E 003°22'710.9
2014-Jul-25 18:30N 51°49' E 003°18'1010.0
2014-Jul-25 17:30N 51°39' E 003°21'1212.7
2014-Jul-25 16:33N 51°28' E 003°31'1212.0
2014-Jul-25 15:33N 51°22' E 003°46'1110.9
2014-Jul-25 14:33N 51°25' E 004°03'9 9.5
2014-Jul-25 13:33N 51°21' E 004°17'0 0.0
2014-Jul-25 12:34N 51°21' E 004°17'1 1.4
2014-Jul-25 11:33N 51°20' E 004°18'4 4.1
2014-Jul-25 10:33N 51°16' E 004°22'0 0.0
2014-Jul-25 09:32N 51°16' E 004°22'0 0.0
2014-Jul-25 08:28N 51°16' E 004°22'0 0.0
2014-Jul-25 07:28N 51°16' E 004°22'0 0.0
2014-Jul-25 06:33N 51°16' E 004°22'0 0.0
2014-Jul-25 05:33N 51°16' E 004°22'0 0.0
2014-Jul-25 04:32N 51°16' E 004°22'0 0.0
2014-Jul-25 03:32N 51°16' E 004°22'0 0.1
2014-Jul-25 02:32N 51°16' E 004°22'0 0.0
2014-Jul-25 01:31N 51°16' E 004°22'0 0.0
2014-Jul-25 00:31N 51°16' E 004°22'0 0.0
2014-Jul-24 23:33N 51°16' E 004°22'0 0.0
2014-Jul-24 22:33N 51°16' E 004°22'2 1.9
2014-Jul-24 21:31N 51°15' E 004°24'0 0.0
2014-Jul-24 20:28N 51°15' E 004°24'0 0.0
2014-Jul-24 19:33N 51°15' E 004°24'0 0.0
2014-Jul-24 18:33N 51°15' E 004°24'0 0.0
2014-Jul-24 17:32N 51°15' E 004°24'0 0.0
2014-Jul-24 16:32N 51°15' E 004°24'0 0.0
2014-Jul-24 15:32N 51°15' E 004°24'0 0.0
2014-Jul-24 14:32N 51°15' E 004°24'0 0.1
2014-Jul-24 13:31N 51°15' E 004°24'0 0.0
2014-Jul-24 12:32N 51°15' E 004°24'0 0.1
2014-Jul-24 11:31N 51°15' E 004°24'0 0.0
2014-Jul-24 10:33N 51°15' E 004°24'0 0.0
2014-Jul-24 09:33N 51°15' E 004°24'0 0.0
2014-Jul-24 08:33N 51°15' E 004°24'0 0.0
2014-Jul-24 07:33N 51°15' E 004°24'0 0.0
2014-Jul-24 06:32N 51°15' E 004°24'0 0.0
2014-Jul-24 05:31N 51°15' E 004°24'0 0.0
2014-Jul-24 04:31N 51°15' E 004°24'0 0.0
2014-Jul-24 03:33N 51°15' E 004°24'0 0.0
2014-Jul-24 02:33N 51°15' E 004°24'0 0.0
2014-Jul-24 01:30N 51°15' E 004°24'0 0.0
2014-Jul-24 00:32N 51°15' E 004°24'0 0.0
2014-Jul-23 23:32N 51°15' E 004°24'0 0.0
2014-Jul-23 22:31N 51°15' E 004°24'0 0.0
2014-Jul-23 21:31N 51°15' E 004°24'0 0.0
2014-Jul-23 20:33N 51°15' E 004°24'0 0.0
2014-Jul-23 19:33N 51°15' E 004°24'0 0.0
2014-Jul-23 18:33N 51°15' E 004°24'0 0.5
2014-Jul-23 17:32N 51°15' E 004°24'0 0.0
2014-Jul-23 16:32N 51°15' E 004°24'0 0.0
2014-Jul-23 15:31N 51°15' E 004°24'0 0.0
2014-Jul-23 14:31N 51°15' E 004°24'0 0.0
2014-Jul-23 13:33N 51°15' E 004°24'0 0.0
2014-Jul-23 12:33N 51°15' E 004°24'0 0.0
2014-Jul-23 11:32N 51°15' E 004°24'0 0.0
2014-Jul-23 10:29N 51°15' E 004°24'0 0.0
2014-Jul-23 09:32N 51°15' E 004°24'0 0.0
2014-Jul-23 08:31N 51°15' E 004°24'0 0.0
2014-Jul-23 07:31N 51°15' E 004°24'0 0.0
2014-Jul-23 06:33N 51°15' E 004°24'0 0.0
2014-Jul-23 05:33N 51°15' E 004°24'0 0.0
2014-Jul-23 04:32N 51°15' E 004°24'0 0.0
2014-Jul-23 03:32N 51°15' E 004°24'0 0.0
2014-Jul-23 02:32N 51°15' E 004°24'0 0.0
2014-Jul-23 01:31N 51°15' E 004°24'0 0.0
2014-Jul-23 00:31N 51°15' E 004°24'0 0.0
2014-Jul-22 23:33N 51°15' E 004°24'0 0.0
2014-Jul-22 22:33N 51°15' E 004°24'0 0.1
2014-Jul-22 21:29N 51°15' E 004°24'0 0.0
2014-Jul-22 20:32N 51°15' E 004°24'0 0.1
2014-Jul-22 19:34N 51°15' E 004°24'0 0.3
2014-Jul-22 18:33N 51°15' E 004°24'3 2.7
2014-Jul-22 17:34N 51°17' E 004°20'0 0.3
2014-Jul-22 16:33N 51°17' E 004°20'2 2.2
2014-Jul-22 15:33N 51°16' E 004°17'0 0.3
2014-Jul-22 14:33N 51°16' E 004°16'1 0.7
2014-Jul-22 13:07N 51°16' E 004°14'0 0.0
2014-Jul-22 12:28N 51°16' E 004°14'0 0.0
2014-Jul-22 11:33N 51°16' E 004°14'0 0.0
2014-Jul-22 10:24N 51°16' E 004°14'0 0.0
2014-Jul-22 09:27N 51°16' E 004°14'0 0.0
2014-Jul-22 08:14N 51°16' E 004°14'0 0.0
2014-Jul-22 07:32N 51°16' E 004°14'0 0.0
2014-Jul-22 06:31N 51°16' E 004°14'0 0.0
2014-Jul-22 05:28N 51°16' E 004°14'0 0.0
2014-Jul-22 04:33N 51°16' E 004°14'0 0.0
2014-Jul-22 03:24N 51°16' E 004°14'0 0.0
2014-Jul-22 02:30N 51°16' E 004°14'0 0.0
2014-Jul-22 01:14N 51°16' E 004°14'0 0.0
2014-Jul-22 00:32N 51°16' E 004°14'0 0.0
2014-Jul-21 23:31N 51°16' E 004°14'0 0.0
2014-Jul-21 22:33N 51°16' E 004°14'0 0.0
2014-Jul-21 21:33N 51°16' E 004°14'0 0.0
2014-Jul-21 20:24N 51°16' E 004°14'0 0.0
2014-Jul-21 20:15N 51°16' E 004°14'0 0.0
2014-Jul-21 19:26N 51°16' E 004°14'0 0.0
2014-Jul-21 18:32N 51°16' E 004°14'0 0.0
2014-Jul-21 17:32N 51°16' E 004°14'0 0.0
2014-Jul-21 16:19N 51°16' E 004°14'0 0.0
2014-Jul-21 15:19N 51°16' E 004°14'0 0.0
2014-Jul-21 14:33N 51°16' E 004°14'0 0.0
2014-Jul-21 13:30N 51°16' E 004°14'0 0.0
2014-Jul-21 12:20N 51°16' E 004°14'0 0.0
2014-Jul-21 11:29N 51°16' E 004°14'0 0.0
2014-Jul-21 10:20N 51°16' E 004°14'0 0.0
2014-Jul-21 09:31N 51°16' E 004°14'0 0.0
2014-Jul-21 08:26N 51°16' E 004°14'0 0.5
2014-Jul-21 07:33N 51°16' E 004°15'3 2.6
2014-Jul-21 06:34N 51°17' E 004°19'9 8.7
2014-Jul-21 05:33N 51°22' E 004°08'8 8.4
2014-Jul-21 04:34N 51°22' E 003°55'1111.2
2014-Jul-21 03:33N 51°25' E 003°38'1111.4
2014-Jul-21 02:33N 51°33' E 003°25'1212.1
2014-Jul-21 01:34N 51°44' E 003°15'10 9.9
2014-Jul-21 00:33N 51°53' E 003°18'1110.3
2014-Jul-20 23:29N 52°04' E 003°21'1210.2
2014-Jul-20 22:16N 52°16' E 003°26'8 9.9
2014-Jul-20 21:28N 52°24' E 003°30'20 9.8
2014-Jul-20 19:27N 52°42' E 003°41'5310.7
2014-Jul-20 14:31N 53°24' E 004°35'  
Track history (hours):
 
Tides and Currents Weather Stations Pressure Air Temp Water Temp Dewpoint Dewpoint Depression Visibility Wind Speed Wind Dir Waves Ship Positions

Flinterborg

Last reported at 2014-Jul-30 14:31 UTC. Time now 2014-Jul-30 15:20 UTC.
Position N 60°29' E 026°57'.

Length 111 m; draft 5.9 m.

Type: Ship. MMSI: 245433000.

Date/timePositionNaut miles runAvg speedWind from/ knotsBaromVisibWave heightAir tempDewpointWater temp
2014-Jul-30 14:31N 60°29' E 026°57'0 0.0
2014-Jul-30 13:31N 60°29' E 026°57'0 0.0
2014-Jul-30 12:31N 60°29' E 026°57'0 0.0
2014-Jul-30 11:33N 60°29' E 026°57'0 0.0
2014-Jul-30 10:33N 60°29' E 026°57'0 0.0
2014-Jul-30 09:32N 60°29' E 026°57'0 0.0
2014-Jul-30 08:29N 60°29' E 026°57'0 0.0
2014-Jul-30 07:31N 60°29' E 026°57'0 0.0
2014-Jul-30 06:31N 60°29' E 026°57'0 0.0
2014-Jul-30 05:28N 60°29' E 026°57'0 0.0
2014-Jul-30 04:33N 60°29' E 026°57'0 0.0
2014-Jul-30 03:33N 60°29' E 026°57'0 0.0
2014-Jul-30 02:32N 60°29' E 026°57'0 0.0
2014-Jul-30 01:32N 60°29' E 026°57'0 0.0
2014-Jul-30 00:31N 60°29' E 026°57'0 0.0
2014-Jul-29 23:31N 60°29' E 026°57'0 0.0
2014-Jul-29 22:31N 60°29' E 026°57'0 0.0
2014-Jul-29 21:33N 60°29' E 026°57'0 0.0
2014-Jul-29 20:33N 60°29' E 026°57'0 0.0
2014-Jul-29 19:32N 60°29' E 026°57'0 0.0
2014-Jul-29 18:32N 60°29' E 026°57'0 0.0
2014-Jul-29 17:31N 60°29' E 026°57'0 0.0
2014-Jul-29 16:31N 60°29' E 026°57'0 0.0
2014-Jul-29 15:34N 60°29' E 026°57'0 0.0
2014-Jul-29 14:33N 60°29' E 026°57'0 0.4
2014-Jul-29 13:33N 60°29' E 026°57'1110.5
2014-Jul-29 12:34N 60°22' E 026°41'1211.5
2014-Jul-29 11:34N 60°14' E 026°25'8 7.9
2014-Jul-29 10:34N 60°07' E 026°16'1212.0
2014-Jul-29 09:33N 59°58' E 026°00'1111.2
2014-Jul-29 08:33N 59°52' E 025°41'1612.0
2014-Jul-29 07:12N 59°49' E 025°09'4311.7
2014-Jul-29 03:33N 59°37' E 023°48'1111.4
2014-Jul-29 02:33N 59°33' E 023°27'1311.5
2014-Jul-29 01:28N 59°29' E 023°03'1111.9
2014-Jul-29 00:30N 59°25' E 022°42'3611.9
2014-Jul-28 21:30N 59°04' E 021°46'21212.3
2014-Jul-28 04:18N 56°22' E 017°29'1212.2
2014-Jul-28 03:17N 56°15' E 017°12'3412.2
2014-Jul-28 00:30N 55°55' E 016°22'1612.1
2014-Jul-27 23:10N 55°48' E 015°57'712.1
2014-Jul-27 22:33N 55°44' E 015°46'1212.2
2014-Jul-27 21:33N 55°38' E 015°27'1212.4
2014-Jul-27 20:34N 55°32' E 015°07'1312.5
2014-Jul-27 19:33N 55°26' E 014°48'1212.3
2014-Jul-27 18:33N 55°17' E 014°32'1312.3
2014-Jul-27 17:30N 55°07' E 014°18'1212.1
2014-Jul-27 16:33N 55°00' E 014°03'1212.3
2014-Jul-27 15:33N 54°56' E 013°43'1212.2
2014-Jul-27 14:33N 54°52' E 013°22'1212.2
2014-Jul-27 13:33N 54°47' E 013°03'1212.3
2014-Jul-27 12:33N 54°41' E 012°44'1212.0
2014-Jul-27 11:33N 54°35' E 012°26'1111.1
2014-Jul-27 10:33N 54°27' E 012°13'1111.0
2014-Jul-27 09:33N 54°24' E 011°55'1212.1
2014-Jul-27 08:33N 54°28' E 011°35'1211.9
2014-Jul-27 07:33N 54°33' E 011°17'1211.7
2014-Jul-27 06:33N 54°35' E 010°56'48 7.9
2014-Jul-27 00:26N 54°17' E 009°39'3 2.8
2014-Jul-26 23:18N 54°14' E 009°37'6 8.1
2014-Jul-26 22:32N 54°11' E 009°28'8 7.7
2014-Jul-26 21:28N 54°05' E 009°19'6 6.1
2014-Jul-26 20:33N 53°59' E 009°17'7 7.3
2014-Jul-26 19:33N 53°54' E 009°09'1 1.5
2014-Jul-26 18:33N 53°53' E 009°06'3 3.4
2014-Jul-26 17:33N 53°51' E 009°01'8 8.3
2014-Jul-26 16:33N 53°50' E 008°47'8 8.3
2014-Jul-26 15:33N 53°57' E 008°38'9 9.2
2014-Jul-26 14:33N 53°59' E 008°23'1010.4
2014-Jul-26 13:33N 53°59' E 008°05'1211.5
2014-Jul-26 12:30N 53°56' E 007°46'5212.7
2014-Jul-26 08:25N 53°43' E 006°20'1113.2
2014-Jul-26 07:33N 53°40' E 006°02'1313.3
2014-Jul-26 06:33N 53°36' E 005°40'1313.4
2014-Jul-26 05:33N 53°32' E 005°19'1413.5
2014-Jul-26 04:33N 53°27' E 004°58'1312.9
2014-Jul-26 03:33N 53°20' E 004°40'1413.6
2014-Jul-26 02:33N 53°09' E 004°28'1312.9
2014-Jul-26 01:33N 52°57' E 004°19'1211.9
2014-Jul-26 00:33N 52°46' E 004°09'1211.5
2014-Jul-25 23:33N 52°37' E 003°58'1211.2
2014-Jul-25 22:28N 52°27' E 003°47'1311.2
2014-Jul-25 21:19N 52°16' E 003°36'2310.5
2014-Jul-25 19:07N 51°55' E 003°22'710.9
2014-Jul-25 18:30N 51°49' E 003°18'1010.0
2014-Jul-25 17:30N 51°39' E 003°21'1212.7
2014-Jul-25 16:33N 51°28' E 003°31'1212.0
2014-Jul-25 15:33N 51°22' E 003°46'1110.9
2014-Jul-25 14:33N 51°25' E 004°03'9 9.5
2014-Jul-25 13:33N 51°21' E 004°17'0 0.0
2014-Jul-25 12:34N 51°21' E 004°17'1 1.4
2014-Jul-25 11:33N 51°20' E 004°18'4 4.1
2014-Jul-25 10:33N 51°16' E 004°22'0 0.0
2014-Jul-25 09:32N 51°16' E 004°22'0 0.0
2014-Jul-25 08:28N 51°16' E 004°22'0 0.0
2014-Jul-25 07:28N 51°16' E 004°22'0 0.0
2014-Jul-25 06:33N 51°16' E 004°22'0 0.0
2014-Jul-25 05:33N 51°16' E 004°22'0 0.0
2014-Jul-25 04:32N 51°16' E 004°22'0 0.0
2014-Jul-25 03:32N 51°16' E 004°22'0 0.1
2014-Jul-25 02:32N 51°16' E 004°22'0 0.0
2014-Jul-25 01:31N 51°16' E 004°22'0 0.0
2014-Jul-25 00:31N 51°16' E 004°22'0 0.0
2014-Jul-24 23:33N 51°16' E 004°22'0 0.0
2014-Jul-24 22:33N 51°16' E 004°22'2 1.9
2014-Jul-24 21:31N 51°15' E 004°24'0 0.0
2014-Jul-24 20:28N 51°15' E 004°24'0 0.0
2014-Jul-24 19:33N 51°15' E 004°24'0 0.0
2014-Jul-24 18:33N 51°15' E 004°24'0 0.0
2014-Jul-24 17:32N 51°15' E 004°24'0 0.0
2014-Jul-24 16:32N 51°15' E 004°24'0 0.0
2014-Jul-24 15:32N 51°15' E 004°24'0 0.0
2014-Jul-24 14:32N 51°15' E 004°24'0 0.1
2014-Jul-24 13:31N 51°15' E 004°24'0 0.0
2014-Jul-24 12:32N 51°15' E 004°24'0 0.1
2014-Jul-24 11:31N 51°15' E 004°24'0 0.0
2014-Jul-24 10:33N 51°15' E 004°24'0 0.0
2014-Jul-24 09:33N 51°15' E 004°24'0 0.0
2014-Jul-24 08:33N 51°15' E 004°24'0 0.0
2014-Jul-24 07:33N 51°15' E 004°24'0 0.0
2014-Jul-24 06:32N 51°15' E 004°24'0 0.0
2014-Jul-24 05:31N 51°15' E 004°24'0 0.0
2014-Jul-24 04:31N 51°15' E 004°24'0 0.0
2014-Jul-24 03:33N 51°15' E 004°24'0 0.0
2014-Jul-24 02:33N 51°15' E 004°24'0 0.0
2014-Jul-24 01:30N 51°15' E 004°24'0 0.0
2014-Jul-24 00:32N 51°15' E 004°24'0 0.0
2014-Jul-23 23:32N 51°15' E 004°24'0 0.0
2014-Jul-23 22:31N 51°15' E 004°24'0 0.0
2014-Jul-23 21:31N 51°15' E 004°24'0 0.0
2014-Jul-23 20:33N 51°15' E 004°24'0 0.0
2014-Jul-23 19:33N 51°15' E 004°24'0 0.0
2014-Jul-23 18:33N 51°15' E 004°24'0 0.5
2014-Jul-23 17:32N 51°15' E 004°24'0 0.0
2014-Jul-23 16:32N 51°15' E 004°24'0 0.0
2014-Jul-23 15:31N 51°15' E 004°24'0 0.0
2014-Jul-23 14:31N 51°15' E 004°24'0 0.0
2014-Jul-23 13:33N 51°15' E 004°24'0 0.0
2014-Jul-23 12:33N 51°15' E 004°24'0 0.0
2014-Jul-23 11:32N 51°15' E 004°24'0 0.0
2014-Jul-23 10:29N 51°15' E 004°24'0 0.0
2014-Jul-23 09:32N 51°15' E 004°24'0 0.0
2014-Jul-23 08:31N 51°15' E 004°24'0 0.0
2014-Jul-23 07:31N 51°15' E 004°24'0 0.0
2014-Jul-23 06:33N 51°15' E 004°24'0 0.0
2014-Jul-23 05:33N 51°15' E 004°24'0 0.0
2014-Jul-23 04:32N 51°15' E 004°24'0 0.0
2014-Jul-23 03:32N 51°15' E 004°24'0 0.0
2014-Jul-23 02:32N 51°15' E 004°24'0 0.0
2014-Jul-23 01:31N 51°15' E 004°24'0 0.0
2014-Jul-23 00:31N 51°15' E 004°24'0 0.0
2014-Jul-22 23:33N 51°15' E 004°24'0 0.0
2014-Jul-22 22:33N 51°15' E 004°24'0 0.1
2014-Jul-22 21:29N 51°15' E 004°24'0 0.0
2014-Jul-22 20:32N 51°15' E 004°24'0 0.1
2014-Jul-22 19:34N 51°15' E 004°24'0 0.3
2014-Jul-22 18:33N 51°15' E 004°24'3 2.7
2014-Jul-22 17:34N 51°17' E 004°20'0 0.3
2014-Jul-22 16:33N 51°17' E 004°20'2 2.2
2014-Jul-22 15:33N 51°16' E 004°17'0 0.3
2014-Jul-22 14:33N 51°16' E 004°16'1 0.7
2014-Jul-22 13:07N 51°16' E 004°14'0 0.0
2014-Jul-22 12:28N 51°16' E 004°14'0 0.0
2014-Jul-22 11:33N 51°16' E 004°14'0 0.0
2014-Jul-22 10:24N 51°16' E 004°14'0 0.0
2014-Jul-22 09:27N 51°16' E 004°14'0 0.0
2014-Jul-22 08:14N 51°16' E 004°14'0 0.0
2014-Jul-22 07:32N 51°16' E 004°14'0 0.0
2014-Jul-22 06:31N 51°16' E 004°14'0 0.0
2014-Jul-22 05:28N 51°16' E 004°14'0 0.0
2014-Jul-22 04:33N 51°16' E 004°14'0 0.0
2014-Jul-22 03:24N 51°16' E 004°14'0 0.0
2014-Jul-22 02:30N 51°16' E 004°14'0 0.0
2014-Jul-22 01:14N 51°16' E 004°14'0 0.0
2014-Jul-22 00:32N 51°16' E 004°14'0 0.0
2014-Jul-21 23:31N 51°16' E 004°14'0 0.0
2014-Jul-21 22:33N 51°16' E 004°14'0 0.0
2014-Jul-21 21:33N 51°16' E 004°14'0 0.0
2014-Jul-21 20:24N 51°16' E 004°14'0 0.0
2014-Jul-21 20:15N 51°16' E 004°14'0 0.0
2014-Jul-21 19:26N 51°16' E 004°14'0 0.0
2014-Jul-21 18:32N 51°16' E 004°14'0 0.0
2014-Jul-21 17:32N 51°16' E 004°14'0 0.0
2014-Jul-21 16:19N 51°16' E 004°14'0 0.0
2014-Jul-21 15:19N 51°16' E 004°14'0 0.0
2014-Jul-21 14:33N 51°16' E 004°14'0 0.0
2014-Jul-21 13:30N 51°16' E 004°14'0 0.0
2014-Jul-21 12:20N 51°16' E 004°14'0 0.0
2014-Jul-21 11:29N 51°16' E 004°14'0 0.0
2014-Jul-21 10:20N 51°16' E 004°14'0 0.0
2014-Jul-21 09:31N 51°16' E 004°14'0 0.0
2014-Jul-21 08:26N 51°16' E 004°14'0 0.5
2014-Jul-21 07:33N 51°16' E 004°15'3 2.6
2014-Jul-21 06:34N 51°17' E 004°19'9 8.7
2014-Jul-21 05:33N 51°22' E 004°08'8 8.4
2014-Jul-21 04:34N 51°22' E 003°55'1111.2
2014-Jul-21 03:33N 51°25' E 003°38'1111.4
2014-Jul-21 02:33N 51°33' E 003°25'1212.1
2014-Jul-21 01:34N 51°44' E 003°15'10 9.9
2014-Jul-21 00:33N 51°53' E 003°18'1110.3
2014-Jul-20 23:29N 52°04' E 003°21'1210.2
2014-Jul-20 22:16N 52°16' E 003°26'8 9.9
2014-Jul-20 21:28N 52°24' E 003°30'20 9.8
2014-Jul-20 19:27N 52°42' E 003°41'5310.7
2014-Jul-20 14:31N 53°24' E 004°35'  

Dump ship's entire track history